Time;durP1;ratioP1;P1;durP2;ratioP2;P2;SDS_P1;SDS_P2;PMS_P1;PMS_P2;Temp;Humidity;BMP_temperature;BMP_pressure;BME280_temperature;BME280_humidity;BME280_pressure;Samples;Min_cycle;Max_cycle;Signal;HPM_P1;HPM_P2
2022/03/15 00:01:06;;;;;;;;;;;;;;;25.37;35.17;95104.78;4974961;28;7736;-61
2022/03/15 00:03:39;;;;;;;;;;;;;;;25.35;35.44;95107.25;4983968;28;7323;-61
2022/03/15 00:06:11;;;;;;;;;;;;;;;25.35;35.69;95101.00;5011299;28;7360;-61
2022/03/15 00:08:37;;;;;;;;;;;;;;;25.35;35.28;95106.50;4994682;28;8784;-61
2022/03/15 00:11:05;;;;;;;;;;;;;;;25.33;35.91;95103.50;4977072;28;9413;-61
2022/03/15 00:13:47;;;;;;;;;;;;;;;25.32;35.63;95102.72;4987598;28;8782;-61
2022/03/15 00:16:18;;;;;;;;;;;;;;;25.31;35.44;95098.47;5011959;28;9026;-61
2022/03/15 00:19:15;;;;;;;;;;;;;;;25.32;35.30;95096.47;4977343;28;7252;-61
2022/03/15 00:22:18;;;;;;;;;;;;;;;25.32;35.82;95112.97;4974310;28;9166;-61
2022/03/15 00:24:55;;;;;;;;;;;;;;;25.29;35.27;95098.19;4924321;29;8694;-61
2022/03/15 00:27:51;;;;;;;;;;;;;;;25.33;35.90;95103.50;4932313;29;7621;-61
2022/03/15 00:30:25;;;;;;;;;;;;;;;25.32;35.91;95107.47;4926595;29;9148;-61
2022/03/15 00:32:52;;;;;;;;;;;;;;;25.31;35.41;95112.25;4897921;29;8938;-61
2022/03/15 00:35:23;;;;;;;;;;;;;;;25.30;35.44;95105.22;4904460;29;9015;-61
2022/03/15 00:37:53;;;;;;;;;;;;;;;25.30;35.68;95104.47;4916418;29;8740;-61
2022/03/15 00:40:28;;;;;;;;;;;;;;;25.27;35.45;95105.47;4901174;29;7155;-61
2022/03/15 00:42:54;;;;;;;;;;;;;;;25.29;35.48;95108.47;4900534;29;9390;-60
2022/03/15 00:45:25;;;;;;;;;;;;;;;25.27;35.34;95099.97;4909560;29;7401;-61
2022/03/15 00:47:52;;;;;;;;;;;;;;;25.27;36.07;95100.69;4912667;29;8993;-61
2022/03/15 00:50:18;;;;;;;;;;;;;;;25.25;35.48;95094.19;4898021;29;7497;-61
2022/03/15 00:52:48;;;;;;;;;;;;;;;25.22;35.40;95092.41;4913165;29;7881;-61
2022/03/15 00:55:28;;;;;;;;;;;;;;;25.19;35.73;95087.88;4929722;29;7298;-61
2022/03/15 00:57:54;;;;;;;;;;;;;;;25.20;36.06;95083.88;4943494;28;7077;-61
2022/03/15 01:00:27;;;;;;;;;;;;;;;25.17;35.43;95085.63;4994481;28;7529;-61
2022/03/15 01:02:53;;;;;;;;;;;;;;;25.14;35.60;95089.34;5007578;28;7066;-61
2022/03/15 01:05:19;;;;;;;;;;;;;;;25.15;35.60;95084.59;4990108;28;9399;-61
2022/03/15 01:07:52;;;;;;;;;;;;;;;25.12;35.72;95088.34;5003439;28;7134;-61
2022/03/15 01:10:18;;;;;;;;;;;;;;;25.15;35.75;95099.13;4990465;28;7207;-61
2022/03/15 01:12:47;;;;;;;;;;;;;;;25.11;35.73;95092.34;4993854;28;9216;-61
2022/03/15 01:15:13;;;;;;;;;;;;;;;25.13;35.28;95098.88;5013744;28;9018;-61
2022/03/15 01:17:39;;;;;;;;;;;;;;;25.12;35.77;95097.34;4988355;28;8275;-61
2022/03/15 01:20:24;;;;;;;;;;;;;;;25.11;35.58;95098.59;5007231;28;8907;-61
2022/03/15 01:23:09;;;;;;;;;;;;;;;25.12;35.68;95099.38;4984660;28;7548;-61
2022/03/15 01:25:37;;;;;;;;;;;;;;;25.09;35.67;95103.09;5010198;28;9486;-61
2022/03/15 01:28:15;;;;;;;;;;;;;;;25.11;35.63;95108.84;4994196;28;7661;-61
2022/03/15 01:30:43;;;;;;;;;;;;;;;25.08;35.43;95105.06;4991722;28;7280;-60
2022/03/15 01:33:10;;;;;;;;;;;;;;;25.09;35.68;95114.09;4984393;28;9526;-61
2022/03/15 01:36:05;;;;;;;;;;;;;;;25.08;35.31;95107.81;4973548;28;7336;-61
2022/03/15 01:38:34;;;;;;;;;;;;;;;25.08;35.71;95113.34;5013426;28;9493;-61
2022/03/15 01:41:21;;;;;;;;;;;;;;;25.08;35.75;95126.34;5013974;28;6981;-61
2022/03/15 01:43:47;;;;;;;;;;;;;;;25.06;35.37;95126.84;5004688;28;9577;-61
2022/03/15 01:46:14;;;;;;;;;;;;;;;25.04;35.60;95125.81;4997134;28;8745;-61
2022/03/15 01:48:40;;;;;;;;;;;;;;;25.06;35.64;95128.81;4973540;28;7329;-61
2022/03/15 01:51:09;;;;;;;;;;;;;;;25.05;35.82;95138.34;5004401;28;9438;-61
2022/03/15 01:53:35;;;;;;;;;;;;;;;25.00;35.67;95125.28;4976814;28;7294;-61
2022/03/15 01:56:01;;;;;;;;;;;;;;;25.05;35.45;95138.34;5006914;28;9116;-61
2022/03/15 01:58:28;;;;;;;;;;;;;;;25.05;35.19;95136.34;4980907;28;7469;-61
2022/03/15 02:01:01;;;;;;;;;;;;;;;25.05;35.54;95135.59;4997431;28;9094;-61
2022/03/15 02:03:29;;;;;;;;;;;;;;;25.02;35.45;95134.56;5010564;28;9070;-61
2022/03/15 02:05:58;;;;;;;;;;;;;;;25.05;35.67;95141.84;4984785;28;7502;-61
2022/03/15 02:08:24;;;;;;;;;;;;;;;25.04;35.82;95140.34;4995169;28;8618;-61
2022/03/15 02:10:50;;;;;;;;;;;;;;;24.98;35.60;95136.03;4976937;28;8792;-61
2022/03/15 02:13:26;;;;;;;;;;;;;;;25.02;35.38;95137.31;4997271;28;8790;-61
2022/03/15 02:15:54;;;;;;;;;;;;;;;25.00;35.19;95139.03;4997856;28;9060;-61
2022/03/15 02:18:45;;;;;;;;;;;;;;;25.03;35.31;95143.59;4981010;28;7165;-61
2022/03/15 02:21:15;;;;;;;;;;;;;;;25.00;34.88;95142.56;5003365;28;8210;-61
2022/03/15 02:23:53;;;;;;;;;;;;;;;25.00;35.59;95139.81;5013859;28;7858;-61
2022/03/15 02:26:23;;;;;;;;;;;;;;;25.00;35.39;95130.78;5012889;28;8797;-61
2022/03/15 02:28:55;;;;;;;;;;;;;;;25.00;35.43;95136.28;4993044;28;9094;-61
2022/03/15 02:31:21;;;;;;;;;;;;;;;24.97;35.62;95134.53;4989932;28;9194;-61
2022/03/15 02:33:53;;;;;;;;;;;;;;;24.96;35.29;95136.53;4994281;28;9047;-61
2022/03/15 02:36:22;;;;;;;;;;;;;;;24.97;35.16;95142.78;5004478;28;8815;-61
2022/03/15 02:38:54;;;;;;;;;;;;;;;24.96;35.02;95141.28;5013013;28;9282;-61
2022/03/15 02:41:50;;;;;;;;;;;;;;;24.96;35.72;95135.75;4977150;28;7613;-61
2022/03/15 02:44:32;;;;;;;;;;;;;;;24.95;35.62;95137.00;4968838;28;7430;-61
2022/03/15 02:47:03;;;;;;;;;;;;;;;24.92;35.67;95138.75;4991084;28;9082;-61
2022/03/15 02:49:29;;;;;;;;;;;;;;;24.85;35.53;95130.16;5008674;28;7359;-61
2022/03/15 02:51:55;;;;;;;;;;;;;;;24.92;35.56;95140.75;4971009;28;9130;-61
2022/03/15 02:54:22;;;;;;;;;;;;;;;24.86;35.48;95128.94;4978842;28;9153;-61
2022/03/15 02:56:57;;;;;;;;;;;;;;;24.90;35.36;95138.47;4976492;28;9079;-61
2022/03/15 02:59:34;;;;;;;;;;;;;;;24.86;35.38;95131.69;4970109;28;7381;-61
2022/03/15 03:02:10;;;;;;;;;;;;;;;24.90;35.53;95134.97;4985373;28;9239;-61
2022/03/15 03:04:37;;;;;;;;;;;;;;;24.89;35.76;95142.47;4989737;28;8713;-61
2022/03/15 03:07:03;;;;;;;;;;;;;;;24.91;35.14;95139.22;4971409;28;7070;-61
2022/03/15 03:09:29;;;;;;;;;;;;;;;24.91;35.15;95142.72;4970853;28;9338;-61
2022/03/15 03:11:57;;;;;;;;;;;;;;;24.91;35.56;95141.97;4955766;28;7395;-61
2022/03/15 03:14:27;;;;;;;;;;;;;;;24.91;35.29;95139.97;4964525;28;9171;-61
2022/03/15 03:16:53;;;;;;;;;;;;;;;24.90;35.21;95143.22;4982209;28;7785;-61
2022/03/15 03:19:38;;;;;;;;;;;;;;;24.91;35.19;95147.47;4948765;28;9164;-61
2022/03/15 03:22:05;;;;;;;;;;;;;;;24.89;35.13;95147.97;4938885;28;9143;-61
2022/03/15 03:24:34;;;;;;;;;;;;;;;24.93;35.29;95156.00;4955001;28;9588;-61
2022/03/15 03:27:04;;;;;;;;;;;;;;;24.96;35.40;95160.53;4953981;28;7253;-60
2022/03/15 03:29:42;;;;;;;;;;;;;;;24.96;34.79;95168.78;4951896;28;9479;-61
2022/03/15 03:32:29;;;;;;;;;;;;;;;24.96;34.91;95157.78;4946507;28;7038;-61
2022/03/15 03:34:55;;;;;;;;;;;;;;;24.93;35.08;95147.75;4940274;28;9092;-60
2022/03/15 03:38:16;;;;;;;;;;;;;;;24.95;35.22;95146.00;4948148;28;7215;-61
2022/03/15 03:40:52;;;;;;;;;;;;;;;24.94;35.24;95147.28;4932699;28;7876;-61
2022/03/15 03:43:20;;;;;;;;;;;;;;;24.93;35.46;95154.00;4927330;28;7275;-61
2022/03/15 03:45:57;;;;;;;;;;;;;;;24.90;35.26;95154.22;4912147;28;7294;-61
2022/03/15 03:48:26;;;;;;;;;;;;;;;24.92;35.32;95151.75;4936112;28;7148;-61
2022/03/15 03:50:54;;;;;;;;;;;;;;;24.90;35.41;95146.75;4919908;29;9392;-61
2022/03/15 03:53:21;;;;;;;;;;;;;;;24.87;35.10;95149.69;4935032;28;7128;-61
2022/03/15 03:55:47;;;;;;;;;;;;;;;24.86;35.45;95142.69;4920942;28;7075;-61
2022/03/15 03:58:18;;;;;;;;;;;;;;;24.94;35.16;95166.53;4901534;28;7323;-61
2022/03/15 04:00:44;;;;;;;;;;;;;;;24.94;35.16;95163.03;4942322;28;6969;-61
2022/03/15 04:03:11;;;;;;;;;;;;;;;24.91;35.30;95166.72;4902118;28;8003;-61
2022/03/15 04:05:38;;;;;;;;;;;;;;;24.91;35.37;95167.50;4941771;28;8058;-61
2022/03/15 04:08:36;;;;;;;;;;;;;;;24.91;35.38;95155.72;4957554;28;9232;-61
2022/03/15 04:11:04;;;;;;;;;;;;;;;24.89;35.17;95158.22;4926065;28;7487;-61
2022/03/15 04:13:41;;;;;;;;;;;;;;;24.88;35.80;95148.47;4932972;29;9201;-61
2022/03/15 04:16:19;;;;;;;;;;;;;;;24.89;35.45;95158.22;4934105;28;9321;-61
2022/03/15 04:18:56;;;;;;;;;;;;;;;24.88;35.14;95148.47;4932116;29;9111;-61
2022/03/15 04:21:52;;;;;;;;;;;;;;;24.86;35.15;95142.69;4932619;29;7284;-61
2022/03/15 04:24:27;;;;;;;;;;;;;;;24.84;35.05;95145.19;4916337;29;8988;-61
2022/03/15 04:26:55;;;;;;;;;;;;;;;24.87;35.19;95150.47;4908001;29;7236;-61
2022/03/15 04:29:21;;;;;;;;;;;;;;;24.84;35.63;95139.69;4903256;29;8800;-61
2022/03/15 04:31:47;;;;;;;;;;;;;;;24.81;35.25;95135.91;4904788;29;8686;-61
2022/03/15 04:34:13;;;;;;;;;;;;;;;24.83;35.41;95138.16;4887990;29;8715;-61
2022/03/15 04:36:41;;;;;;;;;;;;;;;24.85;35.37;95147.44;4895205;29;9056;-61
2022/03/15 04:39:06;;;;;;;;;;;;;;;24.84;34.91;95150.69;4894680;29;9150;-61
2022/03/15 04:41:35;;;;;;;;;;;;;;;24.85;34.89;95152.19;4897141;29;9065;-61
2022/03/15 04:44:01;;;;;;;;;;;;;;;24.84;35.34;95136.94;4912221;29;7189;-61
2022/03/15 04:46:27;;;;;;;;;;;;;;;24.86;35.27;95153.72;4916197;28;8927;-61
2022/03/15 04:48:54;;;;;;;;;;;;;;;24.88;35.49;95146.44;4934438;28;7254;-61
2022/03/15 04:51:20;;;;;;;;;;;;;;;24.85;35.35;95143.94;4935082;28;8842;-61
2022/03/15 04:53:49;;;;;;;;;;;;;;;24.79;35.32;95137.63;4945702;28;7257;-61
2022/03/15 04:56:15;;;;;;;;;;;;;;;24.80;35.21;95150.13;4943879;28;9149;-61
2022/03/15 04:58:41;;;;;;;;;;;;;;;24.78;35.53;95152.63;4963135;28;9324;-61
2022/03/15 05:01:08;;;;;;;;;;;;;;;24.79;35.19;95148.63;4956071;28;8384;-61
2022/03/15 05:03:35;;;;;;;;;;;;;;;24.78;35.17;95141.59;4977416;28;9672;-61
2022/03/15 05:06:05;;;;;;;;;;;;;;;24.78;34.87;95147.88;4975646;28;8768;-61
2022/03/15 05:08:37;;;;;;;;;;;;;;;24.75;35.22;95153.59;4999049;28;9594;-61
2022/03/15 05:11:07;;;;;;;;;;;;;;;24.73;35.27;95147.81;5013854;28;7468;-61
2022/03/15 05:13:48;;;;;;;;;;;;;;;24.77;35.36;95170.38;5020693;28;8020;-61
2022/03/15 05:16:42;;;;;;;;;;;;;;;24.77;35.50;95167.63;4981912;28;7213;-61
2022/03/15 05:19:08;;;;;;;;;;;;;;;24.77;35.20;95189.63;5020862;28;9173;-61
2022/03/15 05:21:36;;;;;;;;;;;;;;;24.79;35.46;95168.66;4999904;28;9766;-60
2022/03/15 05:24:02;;;;;;;;;;;;;;;24.80;34.87;95189.41;4991302;28;8900;-61
2022/03/15 05:26:28;;;;;;;;;;;;;;;24.81;34.98;95184.66;4976977;28;9517;-61
2022/03/15 05:28:57;;;;;;;;;;;;;;;24.81;35.37;95179.16;5005018;28;7050;-61
2022/03/15 05:31:23;;;;;;;;;;;;;;;24.81;35.11;95179.16;5005928;28;8758;-61
2022/03/15 05:33:58;;;;;;;;;;;;;;;24.80;34.95;95167.41;4978639;28;9260;-61
2022/03/15 05:36:28;;;;;;;;;;;;;;;24.81;35.02;95174.44;5010248;28;9530;-60
2022/03/15 05:38:55;;;;;;;;;;;;;;;24.80;34.84;95174.88;5009976;28;9142;-61
2022/03/15 05:41:22;;;;;;;;;;;;;;;24.81;35.07;95179.94;5013325;28;6986;-61
2022/03/15 05:43:55;;;;;;;;;;;;;;;24.78;35.01;95180.13;4980274;28;9263;-61
2022/03/15 05:46:43;;;;;;;;;;;;;;;24.79;34.51;95181.66;4986526;28;9906;-61
2022/03/15 05:49:09;;;;;;;;;;;;;;;24.80;35.00;95188.66;4994707;28;7199;-61
2022/03/15 05:51:35;;;;;;;;;;;;;;;24.78;34.82;95175.38;4993855;28;7271;-61
2022/03/15 05:54:01;;;;;;;;;;;;;;;24.78;34.24;95169.13;5005835;28;7847;-61
2022/03/15 05:56:30;;;;;;;;;;;;;;;24.76;34.70;95166.88;4986603;28;9015;-61
2022/03/15 05:58:58;;;;;;;;;;;;;;;24.78;34.57;95169.13;4994519;28;8786;-61
2022/03/15 06:01:26;;;;;;;;;;;;;;;24.76;34.52;95166.09;4980295;28;7839;-61
2022/03/15 06:04:05;;;;;;;;;;;;;;;24.77;34.30;95173.13;4950610;28;7176;-61
2022/03/15 06:06:33;;;;;;;;;;;;;;;24.78;34.59;95163.63;4985972;28;7054;-61
2022/03/15 06:09:17;;;;;;;;;;;;;;;24.76;34.29;95163.34;4997212;28;9078;-61
2022/03/15 06:11:44;;;;;;;;;;;;;;;24.73;34.78;95156.06;4987081;28;7068;-61
2022/03/15 06:14:10;;;;;;;;;;;;;;;24.73;34.62;95168.56;4991899;28;7460;-60
2022/03/15 06:16:39;;;;;;;;;;;;;;;24.73;34.38;95168.56;4974886;28;7368;-60
2022/03/15 06:19:05;;;;;;;;;;;;;;;24.73;34.57;95174.06;4966882;28;9169;-61
2022/03/15 06:21:31;;;;;;;;;;;;;;;24.76;34.60;95177.88;4989831;28;8722;-61
2022/03/15 06:24:00;;;;;;;;;;;;;;;24.77;34.08;95184.13;4990366;28;9121;-61
2022/03/15 06:26:28;;;;;;;;;;;;;;;24.78;34.21;95185.63;4977026;28;8912;-61
2022/03/15 06:28:54;;;;;;;;;;;;;;;24.76;34.26;95194.38;4982704;28;8730;-61
2022/03/15 06:31:30;;;;;;;;;;;;;;;24.76;34.64;95182.59;4962445;28;7370;-61
2022/03/15 06:33:56;;;;;;;;;;;;;;;24.76;34.47;95190.88;4976288;28;9135;-61
2022/03/15 06:36:22;;;;;;;;;;;;;;;24.77;34.58;95184.13;4967870;28;9059;-60
2022/03/15 06:39:00;;;;;;;;;;;;;;;24.73;35.43;95174.06;4975476;28;7054;-60
2022/03/15 06:41:26;;;;;;;;;;;;;;;24.77;35.37;95179.41;4993855;28;9369;-60
2022/03/15 06:43:52;;;;;;;;;;;;;;;24.79;35.17;95173.41;4960326;28;9001;-60
2022/03/15 06:46:23;;;;;;;;;;;;;;;24.78;35.04;95180.13;4976788;28;7426;-60
2022/03/15 06:48:49;;;;;;;;;;;;;;;24.77;34.65;95168.38;4978586;28;9126;-60
2022/03/15 06:51:15;;;;;;;;;;;;;;;24.76;35.00;95163.34;4959753;28;9041;-60
2022/03/15 06:53:44;;;;;;;;;;;;;;;24.73;35.37;95165.81;4987981;28;9039;-60
2022/03/15 06:56:10;;;;;;;;;;;;;;;24.68;35.34;95158.25;4956333;28;6873;-60
2022/03/15 06:58:36;;;;;;;;;;;;;;;24.69;34.74;95170.78;4981691;28;9586;-60
2022/03/15 07:01:02;;;;;;;;;;;;;;;24.67;34.83;95158.75;4987945;28;9885;-60
2022/03/15 07:03:28;;;;;;;;;;;;;;;24.67;34.55;95158.75;5006845;28;8717;-60
2022/03/15 07:05:56;;;;;;;;;;;;;;;24.62;34.68;95162.94;5000687;28;9142;-60
2022/03/15 07:08:22;;;;;;;;;;;;;;;24.69;34.99;95173.53;4974805;28;7060;-60
2022/03/15 07:10:49;;;;;;;;;;;;;;;24.68;34.66;95155.50;4988816;28;9176;-60
2022/03/15 07:13:16;;;;;;;;;;;;;;;24.64;35.23;95162.50;4994133;28;9304;-60
2022/03/15 07:15:46;;;;;;;;;;;;;;;24.69;35.00;95173.53;5003609;28;8680;-60
2022/03/15 07:18:15;;;;;;;;;;;;;;;24.70;35.30;95172.31;5013522;28;9270;-60
2022/03/15 07:20:41;;;;;;;;;;;;;;;24.68;34.75;95172.00;4978905;28;7050;-61
2022/03/15 07:23:07;;;;;;;;;;;;;;;24.67;34.76;95159.50;5006782;28;9699;-61
2022/03/15 07:25:33;;;;;;;;;;;;;;;24.65;35.32;95162.00;4991897;28;7037;-61
2022/03/15 07:28:09;;;;;;;;;;;;;;;24.63;34.51;95142.47;4988279;28;7217;-61
2022/03/15 07:30:36;;;;;;;;;;;;;;;24.64;35.07;95148.72;5005991;28;9043;-61
2022/03/15 07:33:05;;;;;;;;;;;;;;;24.66;34.85;95140.75;4988687;28;9396;-61
2022/03/15 07:35:37;;;;;;;;;;;;;;;24.65;34.90;95139.97;5012053;28;9006;-61
2022/03/15 07:38:03;;;;;;;;;;;;;;;24.64;34.89;95129.47;4978985;28;7911;-61
2022/03/15 07:40:31;;;;;;;;;;;;;;;24.62;35.20;95120.97;5004616;28;9374;-61
2022/03/15 07:43:23;;;;;;;;;;;;;;;24.63;34.89;95112.22;4993106;28;7404;-61
2022/03/15 07:45:50;;;;;;;;;;;;;;;24.63;35.11;95103.97;4998099;28;7253;-61
2022/03/15 07:48:18;;;;;;;;;;;;;;;24.63;34.80;95092.19;4967453;28;7280;-60
2022/03/15 07:50:44;;;;;;;;;;;;;;;24.62;34.95;95090.72;4980872;28;9197;-61
2022/03/15 07:53:10;;;;;;;;;;;;;;;24.64;35.13;95079.97;4989687;28;7641;-60
2022/03/15 07:55:36;;;;;;;;;;;;;;;24.58;34.97;95090.91;4986773;28;7366;-60
2022/03/15 07:58:12;;;;;;;;;;;;;;;24.59;34.75;95092.44;4992300;28;8549;-60
2022/03/15 08:00:39;;;;;;;;;;;;;;;24.52;34.99;95081.84;4984978;28;8791;-61
2022/03/15 08:03:05;;;;;;;;;;;;;;;24.61;35.22;95086.44;4979122;28;8734;-60
2022/03/15 08:05:31;;;;;;;;;;;;;;;24.58;35.07;95079.16;4972061;28;7535;-61
2022/03/15 08:08:07;;;;;;;;;;;;;;;24.61;35.09;95097.44;4993348;28;9620;-61
2022/03/15 08:10:35;;;;;;;;;;;;;;;24.60;34.66;95093.91;4985485;28;9451;-61
2022/03/15 08:13:13;;;;;;;;;;;;;;;24.62;34.61;95094.19;4973779;28;8662;-61
2022/03/15 08:15:40;;;;;;;;;;;;;;;24.57;34.78;95085.91;4996112;28;12001;-61
2022/03/15 08:18:06;;;;;;;;;;;;;;;24.61;34.50;95094.69;4953256;28;9421;-61
2022/03/15 08:20:33;;;;;;;;;;;;;;;24.60;34.66;95096.66;4969126;28;9380;-61
2022/03/15 08:23:00;;;;;;;;;;;;;;;24.60;34.92;95091.16;4971372;28;9383;-61
2022/03/15 08:25:26;;;;;;;;;;;;;;;24.60;34.62;95093.16;4993733;28;8791;-61
2022/03/15 08:28:01;;;;;;;;;;;;;;;24.60;34.68;95085.66;4999073;28;7087;-61
2022/03/15 08:30:28;;;;;;;;;;;;;;;24.61;35.03;95084.44;4990990;28;9109;-61
2022/03/15 08:32:55;;;;;;;;;;;;;;;24.64;35.00;95069.69;5001079;28;7589;-61
2022/03/15 08:35:24;;;;;;;;;;;;;;;24.64;35.04;95058.69;5006055;28;8773;-61
2022/03/15 08:37:51;;;;;;;;;;;;;;;24.63;34.95;95065.44;5005230;28;7071;-61
2022/03/15 08:40:18;;;;;;;;;;;;;;;24.65;34.75;95060.22;4986457;28;9184;-61
2022/03/15 08:42:44;;;;;;;;;;;;;;;24.66;35.46;95056.22;5002677;28;7234;-61
2022/03/15 08:45:10;;;;;;;;;;;;;;;24.67;34.69;95051.47;4984843;28;7266;-61
2022/03/15 08:47:37;;;;;;;;;;;;;;;24.65;34.88;95048.44;4987107;28;7656;-61
2022/03/15 08:50:04;;;;;;;;;;;;;;;24.65;34.71;95051.97;4984756;28;9480;-61
2022/03/15 08:52:31;;;;;;;;;;;;;;;24.66;35.48;95047.94;4999089;28;9088;-61
2022/03/15 08:54:59;;;;;;;;;;;;;;;24.57;35.00;95030.91;4993561;28;9132;-61
2022/03/15 08:57:25;;;;;;;;;;;;;;;24.58;35.12;95032.38;4983008;28;8742;-61
2022/03/15 08:59:53;;;;;;;;;;;;;;;24.57;34.74;95019.91;5002955;28;9408;-60
2022/03/15 09:02:21;;;;;;;;;;;;;;;24.56;34.81;95010.88;4987590;28;9469;-60
2022/03/15 09:04:47;;;;;;;;;;;;;;;24.54;35.14;95007.88;5001717;28;7220;-60
2022/03/15 09:07:13;;;;;;;;;;;;;;;24.53;35.31;95003.59;5004936;28;6984;-60
2022/03/15 09:09:41;;;;;;;;;;;;;;;24.58;35.32;95010.38;4971622;28;9064;-61
2022/03/15 09:12:12;;;;;;;;;;;;;;;24.54;35.38;95013.38;4990145;28;9448;-61
2022/03/15 09:14:38;;;;;;;;;;;;;;;24.58;35.52;95013.91;5018180;28;9378;-61
2022/03/15 09:17:05;;;;;;;;;;;;;;;24.54;35.54;95009.88;5005342;28;7396;-61
2022/03/15 09:19:32;;;;;;;;;;;;;;;24.51;35.43;95011.59;5010565;28;9060;-61
2022/03/15 09:22:02;;;;;;;;;;;;;;;24.51;35.53;95010.84;5003160;28;9166;-61
2022/03/15 09:24:30;;;;;;;;;;;;;;;24.54;35.57;95007.88;5006120;28;9216;-61
2022/03/15 09:26:56;;;;;;;;;;;;;;;24.56;35.19;95016.38;4989663;28;7560;-61
2022/03/15 09:29:22;;;;;;;;;;;;;;;24.57;35.55;95012.41;5007945;28;9228;-60
2022/03/15 09:32:16;;;;;;;;;;;;;;;24.57;35.53;95001.41;4998768;28;9356;-60
2022/03/15 09:34:44;;;;;;;;;;;;;;;24.56;35.38;95010.88;4957072;28;9042;-61
2022/03/15 09:37:24;;;;;;;;;;;;;;;24.56;35.03;94988.88;4941250;28;7265;-61
2022/03/15 09:39:53;;;;;;;;;;;;;;;24.52;35.48;94971.84;4985845;28;7932;-61
2022/03/15 09:42:20;;;;;;;;;;;;;;;24.54;35.48;94974.88;4950974;28;8781;-61
2022/03/15 09:44:46;;;;;;;;;;;;;;;24.53;35.55;94973.34;4954379;28;7339;-61
2022/03/15 09:47:14;;;;;;;;;;;;;;;24.51;35.62;94962.09;4973302;28;9172;-61
2022/03/15 09:49:44;;;;;;;;;;;;;;;24.55;35.56;94961.88;4973745;28;7211;-61
2022/03/15 09:52:11;;;;;;;;;;;;;;;24.53;35.47;94951.34;4970795;28;7135;-61
2022/03/15 09:54:37;;;;;;;;;;;;;;;24.53;35.41;94956.84;4954878;28;8926;-61
2022/03/15 09:57:06;;;;;;;;;;;;;;;24.52;35.63;94949.84;4962988;28;8657;-61
2022/03/15 09:59:36;;;;;;;;;;;;;;;24.49;36.15;94931.56;4956551;28;6979;-61
2022/03/15 10:02:03;;;;;;;;;;;;;;;24.49;35.59;94923.31;4943811;28;7526;-61
2022/03/15 10:04:29;;;;;;;;;;;;;;;24.50;35.48;94916.59;4944896;28;9104;-61
2022/03/15 10:07:04;;;;;;;;;;;;;;;24.53;35.83;94909.38;4977381;28;9060;-61
2022/03/15 10:09:30;;;;;;;;;;;;;;;24.51;35.59;94915.34;4967020;28;8752;-61
2022/03/15 10:11:56;;;;;;;;;;;;;;;24.51;36.07;94909.09;4958070;28;9032;-61
2022/03/15 10:14:27;;;;;;;;;;;;;;;24.51;36.06;94904.34;4989233;28;12052;-61
2022/03/15 10:17:07;;;;;;;;;;;;;;;24.51;35.74;94901.59;4977089;28;7237;-62
2022/03/15 10:19:35;;;;;;;;;;;;;;;24.49;35.90;94890.34;4993079;28;7279;-62
2022/03/15 10:22:03;;;;;;;;;;;;;;;24.50;35.58;94891.84;4980514;28;9429;-62
2022/03/15 10:24:36;;;;;;;;;;;;;;;24.52;35.10;94889.38;4977363;28;7876;-62
2022/03/15 10:27:02;;;;;;;;;;;;;;;24.51;35.59;94882.34;4988633;28;7321;-62
2022/03/15 10:29:29;;;;;;;;;;;;;;;24.49;36.17;94868.34;4991301;28;7499;-63
2022/03/15 10:31:55;;;;;;;;;;;;;;;24.50;35.89;94861.59;4975326;28;9053;-62
2022/03/15 10:34:22;;;;;;;;;;;;;;;24.47;35.67;94861.81;4958384;28;7681;-62
2022/03/15 10:37:00;;;;;;;;;;;;;;;24.49;35.99;94851.09;4964344;28;9237;-62
2022/03/15 10:39:28;;;;;;;;;;;;;;;24.50;36.36;94849.84;4969904;28;8256;-62
2022/03/15 10:41:58;;;;;;;;;;;;;;;24.51;35.72;94849.34;4964647;28;9143;-62
2022/03/15 10:44:28;;;;;;;;;;;;;;;24.50;35.84;94838.84;4977497;28;9403;-62
2022/03/15 10:47:38;;;;;;;;;;;;;;;24.51;36.18;94823.88;5008334;28;9122;-62
2022/03/15 10:50:04;;;;;;;;;;;;;;;24.51;36.24;94826.63;5007003;28;9128;-62
2022/03/15 10:52:30;;;;;;;;;;;;;;;24.48;35.57;94817.34;4958335;28;9137;-62
2022/03/15 10:54:56;;;;;;;;;;;;;;;24.47;36.39;94799.34;5009554;28;7238;-62
2022/03/15 10:57:47;;;;;;;;;;;;;;;24.47;35.80;94791.09;4982157;28;7310;-62
2022/03/15 11:00:17;;;;;;;;;;;;;;;24.49;35.95;94790.63;4992398;28;7233;-62
2022/03/15 11:02:50;;;;;;;;;;;;;;;24.48;36.12;94778.09;4974169;28;9091;-62
2022/03/15 11:05:30;;;;;;;;;;;;;;;24.49;36.12;94774.13;4972941;28;7432;-62
2022/03/15 11:08:04;;;;;;;;;;;;;;;24.49;36.04;94768.63;4973246;28;9050;-62
2022/03/15 11:10:30;;;;;;;;;;;;;;;24.44;36.08;94753.59;4976041;28;9741;-62
2022/03/15 11:13:08;;;;;;;;;;;;;;;24.49;35.67;94774.13;4999432;28;9105;-62
2022/03/15 11:15:43;;;;;;;;;;;;;;;24.48;35.77;94765.09;4965812;28;7266;-62
2022/03/15 11:18:17;;;;;;;;;;;;;;;24.48;35.59;94751.34;4937477;28;7557;-62
2022/03/15 11:20:44;;;;;;;;;;;;;;;24.46;35.98;94742.84;4953467;28;9049;-62
2022/03/15 11:23:12;;;;;;;;;;;;;;;24.41;36.01;94735.31;4948238;28;7470;-61
2022/03/15 11:25:57;;;;;;;;;;;;;;;24.40;35.64;94733.81;4954459;28;7256;-62
2022/03/15 11:28:31;;;;;;;;;;;;;;;24.38;36.28;94736.31;4952882;28;7653;-61
2022/03/15 11:30:58;;;;;;;;;;;;;;;24.40;36.17;94728.31;4949437;28;9670;-61
2022/03/15 11:33:26;;;;;;;;;;;;;;;24.42;36.20;94711.34;4946055;28;6990;-61
2022/03/15 11:35:54;;;;;;;;;;;;;;;24.40;36.69;94706.31;4951605;28;8035;-61
2022/03/15 11:38:21;;;;;;;;;;;;;;;24.39;36.58;94693.84;4946711;28;7031;-61
2022/03/15 11:40:49;;;;;;;;;;;;;;;24.43;36.29;94699.84;4954164;28;9032;-61
2022/03/15 11:43:23;;;;;;;;;;;;;;;24.45;35.87;94705.59;4941093;28;12304;-61
2022/03/15 11:46:03;;;;;;;;;;;;;;;24.45;35.95;94697.34;4955497;28;8437;-61
2022/03/15 11:48:49;;;;;;;;;;;;;;;24.44;36.16;94695.09;4987838;28;7114;-61
2022/03/15 11:51:43;;;;;;;;;;;;;;;24.45;35.91;94693.84;4980803;28;7255;-61
2022/03/15 11:54:22;;;;;;;;;;;;;;;24.46;36.46;94696.09;4970742;28;9107;-61
2022/03/15 11:56:53;;;;;;;;;;;;;;;24.47;35.94;94703.09;4991832;28;7044;-61
2022/03/15 11:59:19;;;;;;;;;;;;;;;24.45;36.04;94704.84;4965676;28;8954;-61
2022/03/15 12:01:49;;;;;;;;;;;;;;;24.46;36.39;94703.59;4968152;28;7893;-62
2022/03/15 12:04:17;;;;;;;;;;;;;;;24.45;36.22;94696.59;4967701;28;7069;-61
2022/03/15 12:06:59;;;;;;;;;;;;;;;24.47;35.92;94705.09;4969171;28;7421;-61
2022/03/15 12:09:30;;;;;;;;;;;;;;;24.46;36.29;94712.59;4991856;28;9377;-61
2022/03/15 12:12:16;;;;;;;;;;;;;;;24.46;36.56;94709.84;4971607;28;9011;-61
2022/03/15 12:14:46;;;;;;;;;;;;;;;24.46;36.33;94709.84;4973516;28;9154;-61
2022/03/15 12:17:12;;;;;;;;;;;;;;;24.49;36.03;94702.63;4969862;28;9520;-61
2022/03/15 12:19:50;;;;;;;;;;;;;;;24.48;36.63;94718.34;4983699;28;7892;-61
2022/03/15 12:22:25;;;;;;;;;;;;;;;24.47;36.29;94714.09;4964655;28;9022;-62
2022/03/15 12:25:14;;;;;;;;;;;;;;;24.48;36.16;94717.59;4967728;28;9156;-62
2022/03/15 12:27:49;;;;;;;;;;;;;;;24.49;36.28;94719.84;4967282;28;9432;-62
2022/03/15 12:30:29;;;;;;;;;;;;;;;24.47;36.33;94711.34;4966540;28;7259;-61
2022/03/15 12:32:57;;;;;;;;;;;;;;;24.47;36.75;94719.59;4980123;28;9241;-61
2022/03/15 12:35:34;;;;;;;;;;;;;;;24.48;36.36;94718.34;4977829;28;8380;-61
2022/03/15 12:38:08;;;;;;;;;;;;;;;24.52;35.95;94718.88;4987498;28;7675;-61
2022/03/15 12:40:43;;;;;;;;;;;;;;;24.54;36.69;94719.13;4982921;28;7864;-61
2022/03/15 12:43:27;;;;;;;;;;;;;;;24.57;36.05;94717.38;4972097;28;7403;-61
2022/03/15 12:45:54;;;;;;;;;;;;;;;24.55;36.44;94708.88;4972503;28;9776;-61
2022/03/15 12:48:35;;;;;;;;;;;;;;;24.55;36.33;94706.88;4971163;28;9140;-62
2022/03/15 12:51:03;;;;;;;;;;;;;;;24.57;36.45;94720.13;4968694;28;9988;-61
2022/03/15 12:53:48;;;;;;;;;;;;;;;24.57;36.33;94715.41;4974550;28;7754;-61
2022/03/15 12:56:14;;;;;;;;;;;;;;;24.57;36.47;94718.16;4982255;28;9421;-61
2022/03/15 12:58:50;;;;;;;;;;;;;;;24.53;36.79;94728.59;4968664;28;9059;-61
2022/03/15 13:01:16;;;;;;;;;;;;;;;24.53;36.43;94730.63;4968411;28;7218;-61
2022/03/15 13:03:44;;;;;;;;;;;;;;;24.55;36.51;94730.88;4977157;28;8761;-61
2022/03/15 13:06:20;;;;;;;;;;;;;;;24.53;36.30;94720.34;4967193;28;7129;-62
2022/03/15 13:08:55;;;;;;;;;;;;;;;24.54;36.60;94727.38;4965703;28;7667;-61
2022/03/15 13:11:25;;;;;;;;;;;;;;;24.55;36.37;94728.13;4977410;28;8734;-61
2022/03/15 13:13:51;;;;;;;;;;;;;;;24.55;35.99;94723.38;4968731;28;7278;-61
2022/03/15 13:16:23;;;;;;;;;;;;;;;24.54;36.27;94732.13;4970037;28;7533;-61
2022/03/15 13:18:53;;;;;;;;;;;;;;;24.59;36.46;94739.63;4979769;28;7633;-61